Time;durP1;ratioP1;P1;durP2;ratioP2;P2;SDS_P1;SDS_P2;PMS_P1;PMS_P2;Temp;Humidity;BMP_temperature;BMP_pressure;BME280_temperature;BME280_humidity;BME280_pressure;Samples;Min_cycle;Max_cycle;Signal;HPM_P1;HPM_P2
2021/07/20 00:04:07;;;;;;;12.63;9.10;;;;;;;21.94;100.00;101980.40;1971238;73;31090;-86
2021/07/20 00:09:34;;;;;;;10.50;8.30;;;;;;;21.90;100.00;101982.20;1972228;73;31033;-80
2021/07/20 00:15:01;;;;;;;9.25;8.20;;;;;;;21.87;100.00;101972.95;1972264;73;31019;-81
2021/07/20 00:20:28;;;;;;;11.53;8.55;;;;;;;21.77;100.00;101976.39;1972533;73;31016;-78
2021/07/20 00:25:55;;;;;;;10.37;8.20;;;;;;;21.56;100.00;101981.05;1972215;73;31037;-80
2021/07/20 00:31:25;;;;;;;11.10;8.70;;;;;;;21.51;100.00;101973.31;1972552;72;30931;-82
2021/07/20 00:36:50;;;;;;;11.30;8.40;;;;;;;21.61;100.00;101971.55;1971344;73;31026;-88
2021/07/20 00:42:17;;;;;;;9.78;8.33;;;;;;;21.35;100.00;101972.36;1972277;72;30928;-82
2021/07/20 00:47:45;;;;;;;11.35;8.38;;;;;;;21.29;100.00;101965.80;1972218;73;30930;-81
2021/07/20 00:53:13;;;;;;;10.32;8.83;;;;;;;21.19;100.00;101972.59;1971447;72;31526;-88
2021/07/20 00:58:38;;;;;;;11.43;9.00;;;;;;;21.10;100.00;101973.70;1971589;73;31390;-86
2021/07/20 01:04:23;;;;;;;12.90;8.73;;;;;;;21.28;100.00;101976.85;2015119;71;30986;-75
2021/07/20 01:09:51;;;;;;;12.97;8.73;;;;;;;21.29;100.00;101968.63;1972644;73;30943;-82
2021/07/20 01:15:18;;;;;;;13.38;9.05;;;;;;;21.26;100.00;101970.72;1971420;73;31064;-88
2021/07/20 01:20:44;;;;;;;13.27;9.87;;;;;;;21.02;100.00;101975.93;1965636;73;31500;-89
2021/07/20 01:26:09;;;;;;;13.00;9.77;;;;;;;21.15;100.00;101970.76;1972161;73;30956;-82
2021/07/20 01:32:01;;;;;;;11.53;9.90;;;;;;;21.04;100.00;101965.15;1971396;73;30957;-88
2021/07/20 01:37:50;;;;;;;13.53;9.77;;;;;;;21.01;100.00;101979.33;1972282;73;31487;-82
2021/07/20 01:43:46;;;;;;;12.73;10.13;;;;;;;21.10;100.00;101968.89;1971931;73;30968;-81
2021/07/20 01:49:22;;;;;;;12.27;10.67;;;;;;;21.13;100.00;101964.05;1971936;73;32000;-81
2021/07/20 01:54:47;;;;;;;14.23;11.27;;;;;;;20.88;100.00;101975.48;1971916;73;31009;-82
2021/07/20 02:00:18;;;;;;;14.83;11.37;;;;;;;20.95;100.00;101966.55;1971161;72;31077;-75
2021/07/20 02:11:37;;;;;;;15.08;11.12;;;;;;;20.76;100.00;101968.80;1972250;73;31026;-79
2021/07/20 02:17:03;;;;;;;14.20;12.03;;;;;;;20.65;100.00;101964.61;1971951;73;30962;-81
2021/07/20 02:22:30;;;;;;;13.23;10.87;;;;;;;20.72;100.00;101960.14;1959631;71;31116;-89
2021/07/20 02:27:57;;;;;;;15.93;11.17;;;;;;;20.56;100.00;101967.40;1971501;73;31529;-75
2021/07/20 02:33:23;;;;;;;15.87;11.73;;;;;;;20.62;100.00;101967.52;1972300;73;31460;-82
2021/07/20 02:38:48;;;;;;;15.40;11.23;;;;;;;20.53;100.00;101968.63;1971459;73;31089;-90
2021/07/20 02:44:15;;;;;;;15.13;10.93;;;;;;;20.39;100.00;101963.08;1971382;72;30976;-78
2021/07/20 02:49:42;;;;;;;15.53;11.53;;;;;;;20.34;100.00;101973.09;1971262;73;30961;-88
2021/07/20 02:55:12;;;;;;;12.50;10.40;;;;;;;20.44;100.00;101967.19;1971302;73;33087;-75
2021/07/20 03:00:39;;;;;;;13.70;10.13;;;;;;;20.27;100.00;101959.43;1971381;73;30938;-90
2021/07/20 03:06:09;;;;;;;13.97;10.70;;;;;;;20.22;100.00;101964.38;1972058;73;31076;-82
2021/07/20 03:11:38;;;;;;;13.77;11.17;;;;;;;20.15;100.00;101971.06;1971342;73;33554;-88
2021/07/20 03:17:08;;;;;;;16.00;11.17;;;;;;;20.06;100.00;101972.99;1972212;72;31029;-82
2021/07/20 03:22:35;;;;;;;12.73;10.13;;;;;;;20.06;100.00;101969.59;1971088;73;31009;-75
2021/07/20 03:28:06;;;;;;;13.73;10.83;;;;;;;19.99;100.00;101976.25;1972307;73;31497;-81
2021/07/20 03:33:34;;;;;;;13.97;12.47;;;;;;;19.91;100.00;101966.58;1972050;73;31044;-82
2021/07/20 03:39:04;;;;;;;15.53;11.10;;;;;;;19.87;100.00;101968.95;1971958;73;31009;-82
2021/07/20 03:44:31;;;;;;;11.70;10.30;;;;;;;19.79;100.00;101977.61;1971229;73;31041;-75
2021/07/20 03:49:56;;;;;;;15.60;10.70;;;;;;;19.80;100.00;101976.47;1972023;73;30939;-81
2021/07/20 03:55:20;;;;;;;12.37;10.27;;;;;;;19.74;100.00;101971.25;1971204;73;31078;-78
2021/07/20 04:00:51;;;;;;;12.00;10.07;;;;;;;19.72;100.00;101973.00;1949985;73;39675;-89
2021/07/20 04:06:19;;;;;;;13.87;10.97;;;;;;;19.71;100.00;101978.95;1971403;73;33373;-88
2021/07/20 04:11:45;;;;;;;16.97;11.93;;;;;;;19.57;100.00;101980.41;1971077;73;30969;-76
2021/07/20 04:17:12;;;;;;;13.93;10.97;;;;;;;19.59;100.00;101983.76;1971329;73;31531;-75
2021/07/20 04:22:38;;;;;;;11.10;9.93;;;;;;;19.57;100.00;101980.98;1942674;73;30983;-90
2021/07/20 04:28:06;;;;;;;13.63;10.33;;;;;;;19.55;100.00;101982.13;1971590;73;31455;-90
2021/07/20 04:33:36;;;;;;;13.30;10.33;;;;;;;19.61;100.00;101980.59;1971502;73;30977;-75
2021/07/20 04:39:02;;;;;;;12.43;10.27;;;;;;;19.48;100.00;101997.24;1971343;72;31038;-86
2021/07/20 04:44:28;;;;;;;15.43;10.87;;;;;;;19.54;100.00;101985.28;1972502;73;31453;-82
2021/07/20 04:49:53;;;;;;;13.17;10.57;;;;;;;19.62;100.00;101986.50;1971124;73;31003;-77
2021/07/20 04:55:21;;;;;;;12.63;9.57;;;;;;;19.64;100.00;101985.02;1973504;73;30964;-82
2021/07/20 05:00:51;;;;;;;14.13;9.83;;;;;;;19.59;100.00;101989.39;1971138;73;30975;-82
2021/07/20 05:06:17;;;;;;;12.43;9.87;;;;;;;19.64;100.00;101993.47;1970855;72;33480;-84
2021/07/20 05:11:42;;;;;;;10.00;8.90;;;;;;;19.57;100.00;101993.09;1972432;73;30937;-80
2021/07/20 05:17:09;;;;;;;12.53;9.00;;;;;;;19.61;100.00;101994.12;1972550;73;33440;-80
2021/07/20 05:22:43;;;;;;;9.43;7.30;;;;;;;19.76;100.00;101994.34;1959053;71;30999;-80
2021/07/20 05:28:12;;;;;;;11.63;8.77;;;;;;;19.79;100.00;102001.58;1971020;73;30934;-83
2021/07/20 05:33:39;;;;;;;12.13;9.23;;;;;;;19.81;100.00;102003.48;1971199;73;31007;-79
2021/07/20 05:39:05;;;;;;;8.10;7.00;;;;;;;19.87;100.00;102001.38;1972148;73;31552;-79
2021/07/20 05:44:31;;;;;;;11.33;8.73;;;;;;;20.05;100.00;102000.36;1972522;73;30932;-81
2021/07/20 05:49:57;;;;;;;12.27;8.47;;;;;;;20.03;100.00;101997.02;1971197;73;31474;-78
2021/07/20 05:55:24;;;;;;;11.53;8.53;;;;;;;20.15;100.00;101996.45;1971139;73;31105;-76
2021/07/20 06:00:52;;;;;;;12.13;8.17;;;;;;;20.18;100.00;102000.03;1971219;73;31498;-84
2021/07/20 06:06:18;;;;;;;11.30;10.10;;;;;;;20.43;100.00;101997.97;1970898;73;31018;-76
2021/07/20 06:11:46;;;;;;;10.13;9.13;;;;;;;20.65;100.00;101992.27;1970975;73;30954;-76
2021/07/20 06:17:12;;;;;;;15.20;11.07;;;;;;;20.73;100.00;101990.63;1972658;73;31473;-81
2021/07/20 06:22:44;;;;;;;9.83;8.93;;;;;;;20.95;100.00;101990.55;1970987;73;30999;-85
2021/07/20 06:28:13;;;;;;;12.50;8.17;;;;;;;21.06;100.00;101991.06;1972872;73;33412;-79
2021/07/20 06:33:40;;;;;;;9.83;7.20;;;;;;;21.05;100.00;101991.64;1971179;73;31535;-76
2021/07/20 06:39:11;;;;;;;12.50;9.53;;;;;;;21.03;100.00;102000.20;1973771;73;31443;-79
2021/07/20 06:44:38;;;;;;;13.40;8.60;;;;;;;21.17;100.00;101986.82;1970952;73;31526;-85
2021/07/20 06:50:06;;;;;;;10.03;8.77;;;;;;;21.27;100.00;101994.39;1972438;73;30972;-81
2021/07/20 06:55:32;;;;;;;9.80;7.80;;;;;;;21.48;100.00;101989.53;1972633;73;31436;-80
2021/07/20 07:01:00;;;;;;;12.03;9.45;;;;;;;21.50;100.00;101990.02;1972563;73;31437;-80
2021/07/20 07:06:28;;;;;;;10.50;9.23;;;;;;;21.60;100.00;101996.77;1971145;73;31097;-80
2021/07/20 07:11:56;;;;;;;9.90;8.00;;;;;;;21.68;100.00;101988.87;1970909;73;31484;-82
2021/07/20 07:17:21;;;;;;;11.73;8.65;;;;;;;21.75;100.00;101994.27;1972192;73;31007;-81
2021/07/20 07:22:50;;;;;;;9.40;8.38;;;;;;;21.97;100.00;101996.12;1936142;74;31066;-80
2021/07/20 07:28:16;;;;;;;9.58;7.53;;;;;;;21.97;100.00;101988.20;1970755;73;31081;-74
2021/07/20 07:33:43;;;;;;;10.00;8.00;;;;;;;22.05;100.00;101991.02;1970597;73;31054;-71
2021/07/20 07:39:11;;;;;;;10.43;7.60;;;;;;;22.28;100.00;101992.23;1970443;73;30921;-84
2021/07/20 07:44:57;;;;;;;10.68;7.55;;;;;;;22.39;100.00;101983.03;2016518;71;30925;-81
2021/07/20 07:50:31;;;;;;;9.88;7.10;;;;;;;22.95;100.00;101981.83;1970149;73;31053;-81
2021/07/20 07:56:00;;;;;;;8.67;6.37;;;;;;;23.34;100.00;101978.33;1938739;74;31075;-80
2021/07/20 08:01:35;;;;;;;10.88;5.95;;;;;;;23.92;100.00;101980.20;1970848;73;31001;-80
2021/07/20 08:07:02;;;;;;;7.12;6.08;;;;;;;24.10;100.00;101978.02;1970849;73;30965;-74
2021/07/20 08:12:36;;;;;;;7.72;5.75;;;;;;;24.25;100.00;101975.41;1972440;73;31416;-78
2021/07/20 08:18:04;;;;;;;9.70;6.53;;;;;;;24.41;100.00;101962.77;1972237;73;30930;-77
2021/07/20 08:23:50;;;;;;;8.88;6.22;;;;;;;24.74;100.00;101964.93;2006828;71;30828;-75
2021/07/20 08:29:22;;;;;;;8.73;6.15;;;;;;;25.16;100.00;101965.53;1972363;73;30991;-78
2021/07/20 08:34:52;;;;;;;8.15;6.60;;;;;;;25.55;100.00;101960.27;1970903;73;31047;-81
2021/07/20 08:40:26;;;;;;;9.03;5.90;;;;;;;25.40;100.00;101954.72;1970867;73;30965;-73
2021/07/20 08:43:02;;;;;;;8.48;6.15;;;;;;;25.51;100.00;101963.56;1931207;74;24202;-82
2021/07/20 08:48:32;;;;;;;9.03;5.87;;;;;;;25.92;100.00;101956.11;1971032;73;31472;-81
2021/07/20 08:54:03;;;;;;;7.08;5.65;;;;;;;26.03;100.00;101957.23;1970712;73;30981;-83
2021/07/20 08:59:34;;;;;;;7.45;5.78;;;;;;;26.09;100.00;101946.41;1972173;73;31482;-78
2021/07/20 09:02:10;;;;;;;9.63;5.85;;;;;;;26.16;100.00;101960.25;1934702;74;24236;-77
2021/07/20 09:07:40;;;;;;;7.45;5.47;;;;;;;26.55;100.00;101953.38;1972154;72;31098;-78
2021/07/20 09:13:10;;;;;;;8.00;6.03;;;;;;;26.23;100.00;101951.92;1937245;73;31076;-72
2021/07/20 09:18:45;;;;;;;6.60;6.00;;;;;;;26.39;100.00;101950.53;1971992;73;31948;-78
2021/07/20 09:24:14;;;;;;;8.80;6.78;;;;;;;26.28;100.00;101947.98;1970740;73;31072;-84
2021/07/20 09:29:45;;;;;;;8.10;6.45;;;;;;;26.33;100.00;101945.45;1970696;73;30975;-72
2021/07/20 09:35:28;;;;;;;6.83;5.87;;;;;;;26.31;100.00;101941.57;1970832;73;31935;-83
2021/07/20 09:41:02;;;;;;;7.97;5.97;;;;;;;26.21;100.00;101947.80;1972304;73;31410;-78
2021/07/20 09:46:41;;;;;;;7.67;6.87;;;;;;;26.96;100.00;101940.59;1970920;73;31091;-72
2021/07/20 09:55:34;;;;;;;7.83;6.30;;;;;;;26.64;100.00;101938.36;1904979;74;86255;-77
2021/07/20 09:58:23;;;;;;;7.78;6.58;;;;;;;26.59;100.00;101945.75;1858219;76;933835;-77
2021/07/20 10:01:05;;;;;;;9.10;6.72;;;;;;;26.35;100.00;101946.77;1857994;76;936851;-77
2021/07/20 10:06:50;;;;;;;8.40;6.33;;;;;;;26.66;100.00;101938.80;1877238;76;85505;-73
2021/07/20 10:15:08;;;;;;;9.30;7.58;;;;;;;27.05;100.00;101946.33;1995039;69;39592;-77
2021/07/20 10:20:38;;;;;;;10.85;7.30;;;;;;;27.12;100.00;101945.09;1841710;76;86660;-82
2021/07/20 10:26:06;;;;;;;7.97;7.15;;;;;;;27.05;100.00;101942.64;1913903;72;39738;-74
2021/07/20 10:31:36;;;;;;;8.70;7.70;;;;;;;27.40;100.00;101931.23;1776432;79;86806;-73
2021/07/20 10:37:07;;;;;;;8.58;7.50;;;;;;;27.11;100.00;101933.45;1932303;72;39543;-73
2021/07/20 10:39:41;;;;;;;7.58;6.87;;;;;;;27.05;100.00;101939.80;1843224;75;931651;-73
2021/07/20 10:45:12;;;;;;;9.28;7.70;;;;;;;27.42;100.00;101930.27;1942730;72;39674;-74
2021/07/20 10:50:45;;;;;;;7.70;6.92;;;;;;;26.93;100.00;101922.80;1867545;75;86307;-84
2021/07/20 10:56:19;;;;;;;9.13;7.00;;;;;;;27.38;100.00;101923.66;1877608;75;86794;-77
2021/07/20 10:58:56;;;;;;;7.80;7.10;;;;;;;27.43;100.00;101924.17;1838939;74;934783;-77
2021/07/20 11:07:19;;;;;;;8.03;7.22;;;;;;;26.68;100.00;101919.31;1915613;75;86250;-77
2021/07/20 11:09:53;;;;;;;8.15;7.37;;;;;;;26.60;100.00;101928.30;1855023;75;934879;-77
2021/07/20 11:12:39;;;;;;;7.87;7.08;;;;;;;26.57;100.00;101924.73;1866867;75;936845;-77
2021/07/20 11:15:10;;;;;;;8.68;7.28;;;;;;;26.43;100.00;101927.23;1819289;77;936628;-77
2021/07/20 11:17:43;;;;;;;8.15;7.22;;;;;;;26.57;100.00;101923.30;1831468;77;934857;-77
2021/07/20 11:23:12;;;;;;;7.45;6.67;;;;;;;27.54;100.00;101904.47;1900015;73;39502;-76
2021/07/20 11:28:39;;;;;;;7.03;6.22;;;;;;;27.43;100.00;101909.90;1824454;76;86362;-74
2021/07/20 11:34:08;;;;;;;9.00;6.87;;;;;;;27.22;100.00;101911.45;1901242;73;39602;-77
2021/07/20 11:39:38;;;;;;;7.08;6.17;;;;;;;27.46;100.00;101899.78;1866490;75;86194;-81
2021/07/20 11:45:09;;;;;;;8.28;7.47;;;;;;;27.10;100.00;101905.28;1913054;73;39686;-86
2021/07/20 11:50:39;;;;;;;8.48;7.65;;;;;;;27.25;100.00;101896.45;2019674;70;86790;-77
2021/07/20 11:56:10;;;;;;;7.15;6.55;;;;;;;26.99;100.00;101895.66;1912863;73;39613;-73
2021/07/20 12:02:56;;;;;;;7.85;7.05;;;;;;;27.57;100.00;101895.14;1910577;73;39615;-87
2021/07/20 12:05:52;;;;;;;7.60;6.92;;;;;;;27.39;100.00;101868.20;1838700;75;933645;-75
2021/07/20 12:11:27;;;;;;;7.83;7.12;;;;;;;27.16;100.00;101888.94;1890735;74;86108;-86
2021/07/20 12:17:02;;;;;;;8.03;7.33;;;;;;;27.14;100.00;101881.34;1944644;72;39504;-83
2021/07/20 12:22:32;;;;;;;8.03;7.15;;;;;;;27.05;100.00;101894.16;1782546;79;86639;-76
2021/07/20 12:28:07;;;;;;;8.40;7.60;;;;;;;26.71;100.00;101881.51;1944939;73;39630;-77
2021/07/20 12:33:42;;;;;;;7.75;6.70;;;;;;;27.03;100.00;101887.42;1784155;79;86648;-77
2021/07/20 12:39:11;;;;;;;8.00;7.25;;;;;;;27.09;100.00;101880.20;1943150;73;39494;-83
2021/07/20 12:44:38;;;;;;;7.28;6.53;;;;;;;26.99;100.00;101891.39;1866683;75;86281;-83
2021/07/20 12:50:07;;;;;;;7.50;6.80;;;;;;;27.33;100.00;101878.30;1943409;73;39544;-84
2021/07/20 12:55:33;;;;;;;6.60;6.00;;;;;;;27.26;100.00;101879.54;1953814;70;85382;-77
2021/07/20 13:01:20;;;;;;;7.22;6.55;;;;;;;27.10;100.00;101875.33;1891659;73;39565;-77
2021/07/20 13:07:02;;;;;;;8.35;7.53;;;;;;;27.00;100.00;101873.08;1947486;73;39457;-77
2021/07/20 13:12:29;;;;;;;7.55;6.85;;;;;;;26.67;100.00;101880.59;1868743;75;85532;-80
2021/07/20 13:18:20;;;;;;;7.22;6.53;;;;;;;26.59;100.00;101869.62;1910199;73;39603;-81
2021/07/20 13:23:44;;;;;;;7.70;7.00;;;;;;;26.57;100.00;101873.43;1938195;72;39648;-80
2021/07/20 13:29:17;;;;;;;7.08;6.42;;;;;;;26.55;100.00;101866.45;1890982;74;86601;-77
2021/07/20 13:35:01;;;;;;;7.00;6.30;;;;;;;26.57;100.00;101859.80;1948964;73;39559;-77
2021/07/20 13:40:26;;;;;;;7.37;6.67;;;;;;;26.78;100.00;101848.08;1876142;75;86172;-84
2021/07/20 13:45:58;;;;;;;7.22;6.62;;;;;;;26.50;100.00;101852.48;1900452;73;40133;-77
2021/07/20 13:51:30;;;;;;;6.78;6.12;;;;;;;26.39;100.00;101845.70;1868455;76;85612;-75
2021/07/20 13:56:52;;;;;;;7.33;6.62;;;;;;;26.45;100.00;101847.89;1837140;75;39506;-76
2021/07/20 13:59:27;;;;;;;6.33;5.72;;;;;;;26.50;100.00;101853.31;1781929;78;934591;-79
2021/07/20 14:01:58;;;;;;;6.50;6.00;;;;;;;26.38;100.00;101852.59;1769886;78;947165;-80
2021/07/20 14:04:30;;;;;;;7.60;5.72;;;;;;;26.44;100.00;101860.51;1782370;78;937156;-77
2021/07/20 14:07:01;;;;;;;6.60;6.00;;;;;;;27.28;100.00;101838.04;1770426;78;936998;-77
2021/07/20 14:09:33;;;;;;;6.83;6.20;;;;;;;27.26;100.00;101845.30;1781989;79;936662;-77
2021/07/20 14:14:59;;;;;;;6.28;5.53;;;;;;;27.03;100.00;101840.36;1954096;71;39514;-74
2021/07/20 14:20:33;;;;;;;6.85;6.30;;;;;;;27.09;100.00;101838.02;1838866;76;86712;-75
2021/07/20 14:25:58;;;;;;;6.55;6.05;;;;;;;26.87;100.00;101837.33;1945001;73;39683;-73
2021/07/20 14:31:23;;;;;;;7.10;6.50;;;;;;;26.77;100.00;101830.74;1877985;76;85634;-77
2021/07/20 14:36:50;;;;;;;7.58;6.87;;;;;;;26.97;100.00;101828.17;1947506;73;39594;-77
2021/07/20 14:42:33;;;;;;;6.70;6.10;;;;;;;27.02;100.00;101829.31;1803701;77;86318;-74
2021/07/20 14:48:08;;;;;;;6.55;5.97;;;;;;;26.99;100.00;101830.90;1944936;73;39408;-77
2021/07/20 14:53:33;;;;;;;7.12;6.42;;;;;;;26.89;100.00;101823.52;1798119;79;86542;-81
2021/07/20 14:59:10;;;;;;;6.70;6.00;;;;;;;27.21;100.00;101804.26;1938718;73;39576;-76
2021/07/20 15:01:41;;;;;;;7.35;6.72;;;;;;;27.36;100.00;101801.31;1868187;74;932603;-75
2021/07/20 15:07:20;;;;;;;6.00;5.50;;;;;;;27.56;100.00;101798.68;1929495;72;39590;-76
2021/07/20 15:12:48;;;;;;;6.83;6.05;;;;;;;27.75;100.00;101794.14;1936699;73;40403;-77
2021/07/20 15:18:13;;;;;;;7.25;6.30;;;;;;;27.71;100.00;101795.52;1846040;77;85990;-75
2021/07/20 15:23:39;;;;;;;6.58;5.97;;;;;;;27.91;100.00;101803.41;1941363;71;86382;-73
2021/07/20 15:29:05;;;;;;;6.50;5.85;;;;;;;27.70;100.00;101801.59;1943252;73;39624;-76
2021/07/20 15:34:32;;;;;;;6.42;5.87;;;;;;;27.74;100.00;101805.34;1824326;76;85340;-74
2021/07/20 15:40:05;;;;;;;6.47;5.63;;;;;;;27.75;100.00;101806.99;1943502;73;46354;-77
2021/07/20 15:45:31;;;;;;;6.85;5.78;;;;;;;27.64;100.00;101811.05;1946819;71;86403;-73
2021/07/20 15:50:56;;;;;;;5.75;5.35;;;;;;;27.69;100.00;101814.20;1901441;73;40372;-77
2021/07/20 15:56:22;;;;;;;5.28;4.78;;;;;;;27.68;100.00;101814.83;1876500;75;86200;-80
2021/07/20 16:02:08;;;;;;;6.50;5.62;;;;;;;27.62;100.00;101813.48;1971683;71;39721;-76
2021/07/20 16:07:37;;;;;;;7.80;5.40;;;;;;;27.59;100.00;101824.23;1897801;74;86137;-77
2021/07/20 16:13:35;;;;;;;6.58;5.97;;;;;;;27.64;100.00;101831.67;1866566;76;86611;-73
2021/07/20 16:19:17;;;;;;;5.55;4.95;;;;;;;27.81;100.00;101829.77;1942126;73;39506;-75
2021/07/20 16:25:06;;;;;;;7.08;6.17;;;;;;;27.75;100.00;101823.52;1886525;74;86360;-77
2021/07/20 16:30:54;;;;;;;5.97;5.28;;;;;;;27.85;100.00;101820.06;1835691;76;85608;-80
2021/07/20 16:36:42;;;;;;;7.72;5.70;;;;;;;27.93;100.00;101816.72;1915416;73;86592;-77
2021/07/20 16:42:29;;;;;;;8.43;5.75;;;;;;;27.72;100.00;101820.01;1941140;73;86180;-78
2021/07/20 16:48:13;;;;;;;5.58;5.08;;;;;;;27.47;100.00;101815.81;1942244;73;39642;-73
2021/07/20 16:53:43;;;;;;;5.53;5.03;;;;;;;27.91;100.00;101801.38;1866162;75;86453;-78
2021/07/20 16:59:17;;;;;;;7.78;5.35;;;;;;;27.32;100.00;101805.30;1877319;75;86846;-77
2021/07/20 17:01:52;;;;;;;5.42;4.90;;;;;;;27.51;100.00;101808.98;1850506;76;937573;-80
2021/07/20 17:10:26;;;;;;;6.00;5.12;;;;;;;27.65;100.00;101807.61;1957944;71;39531;-74
2021/07/20 17:16:09;;;;;;;5.45;4.92;;;;;;;27.51;100.00;101816.73;1913937;73;39460;-75
2021/07/20 17:21:56;;;;;;;5.83;4.78;;;;;;;27.57;100.00;101819.49;1854709;76;86713;-76
2021/07/20 17:27:34;;;;;;;5.90;4.95;;;;;;;27.81;100.00;101816.91;1866724;75;86234;-73
2021/07/20 17:33:38;;;;;;;5.35;4.87;;;;;;;27.41;100.00;101818.14;1899436;72;39633;-73
2021/07/20 17:39:30;;;;;;;5.10;4.60;;;;;;;27.28;100.00;101833.77;1942114;73;39464;-74
2021/07/20 17:45:19;;;;;;;5.97;4.90;;;;;;;28.48;100.00;101824.64;1913463;73;40105;-73
2021/07/20 17:51:06;;;;;;;6.83;5.12;;;;;;;28.48;100.00;101836.69;1960415;71;39618;-74
2021/07/20 17:56:54;;;;;;;6.05;5.45;;;;;;;28.58;100.00;101850.33;1824389;77;85545;-74
2021/07/20 18:02:37;;;;;;;5.20;4.75;;;;;;;28.54;100.00;101859.43;1866558;75;85655;-74
2021/07/20 18:08:30;;;;;;;6.53;5.83;;;;;;;28.41;100.00;101860.24;1890697;75;85556;-74
2021/07/20 18:14:19;;;;;;;6.62;5.30;;;;;;;28.38;100.00;101861.61;1943122;73;40088;-74
2021/07/20 18:19:59;;;;;;;8.03;5.72;;;;;;;28.12;100.00;101858.70;1919838;73;39647;-76
2021/07/20 18:25:47;;;;;;;7.50;6.60;;;;;;;28.09;100.00;101868.84;1784103;79;86490;-74
2021/07/20 18:31:26;;;;;;;6.45;5.85;;;;;;;27.78;100.00;101871.30;1876596;74;86182;-74
2021/07/20 18:37:07;;;;;;;6.30;5.70;;;;;;;27.61;100.00;101875.45;1931265;72;39633;-73
2021/07/20 18:49:07;;;;;;;6.15;5.55;;;;;;;27.23;100.00;101875.42;1776654;80;86809;-74
2021/07/20 18:54:58;;;;;;;6.30;5.65;;;;;;;27.40;100.00;101876.41;1862891;76;86552;-73
2021/07/20 19:00:42;;;;;;;7.55;5.87;;;;;;;27.45;100.00;101886.70;1760033;80;86486;-74
2021/07/20 19:06:33;;;;;;;7.10;5.42;;;;;;;27.37;100.00;101887.75;1890297;74;85823;-75
2021/07/20 19:12:24;;;;;;;7.45;6.08;;;;;;;27.37;100.00;101888.58;1915481;73;73832;-73
2021/07/20 19:18:15;;;;;;;7.65;6.28;;;;;;;27.24;100.00;101890.52;1933048;72;40321;-73
2021/07/20 19:24:03;;;;;;;7.60;6.20;;;;;;;26.78;100.00;101897.38;1877232;76;86494;-73
2021/07/20 19:29:52;;;;;;;7.00;6.30;;;;;;;26.69;100.00;101909.58;1761120;80;86392;-75
2021/07/20 19:35:47;;;;;;;8.00;6.47;;;;;;;26.61;100.00;101903.47;1906173;74;86531;-73
2021/07/20 19:41:29;;;;;;;7.70;7.00;;;;;;;26.63;100.00;101909.61;1882633;74;86422;-74
2021/07/20 19:47:12;;;;;;;7.85;7.15;;;;;;;26.61;100.00;101915.67;1990345;70;39553;-73
2021/07/20 19:52:54;;;;;;;7.80;7.05;;;;;;;26.48;100.00;101926.14;1934204;73;934763;-74
2021/07/20 19:55:39;;;;;;;7.72;6.60;;;;;;;26.43;100.00;101926.41;1935723;73;936671;-71
2021/07/20 19:58:28;;;;;;;7.35;6.72;;;;;;;26.44;100.00;101928.06;1923027;73;936712;-74
2021/07/20 20:01:28;;;;;;;8.15;7.33;;;;;;;26.36;100.00;101940.48;1923294;73;936758;-76
2021/07/20 20:04:09;;;;;;;9.35;7.05;;;;;;;26.22;100.00;101943.77;1921747;72;937089;-74
2021/07/20 20:06:55;;;;;;;8.58;7.12;;;;;;;26.12;100.00;101951.38;1935839;73;934668;-77
2021/07/20 20:09:39;;;;;;;7.75;7.03;;;;;;;26.02;100.00;101951.30;1935571;72;936684;-76
2021/07/20 20:12:32;;;;;;;8.23;7.33;;;;;;;25.77;100.00;101963.40;1885199;74;937098;-76
2021/07/20 20:15:19;;;;;;;8.35;7.55;;;;;;;25.65;100.00;101957.75;1851387;75;936799;-76
2021/07/20 20:18:17;;;;;;;9.43;7.65;;;;;;;25.78;100.00;101957.11;1885180;74;936873;-74
2021/07/20 20:24:18;;;;;;;8.68;7.70;;;;;;;25.60;100.00;101974.25;1901923;73;39603;-73
2021/07/20 20:29:51;;;;;;;9.18;8.28;;;;;;;25.32;100.00;102001.20;1947819;72;39659;-76
2021/07/20 20:35:35;;;;;;;9.83;8.30;;;;;;;24.79;100.00;102028.65;1893448;75;86825;-79
2021/07/20 20:41:18;;;;;;;10.80;8.73;;;;;;;25.07;100.00;102057.27;1943052;72;39501;-73
2021/07/20 20:46:55;;;;;;;9.38;8.48;;;;;;;25.16;100.00;102038.67;1945316;73;39463;-78
2021/07/20 20:52:20;;;;;;;10.43;9.05;;;;;;;24.93;100.00;102046.83;1890384;74;86496;-82
2021/07/20 20:57:53;;;;;;;10.30;9.18;;;;;;;25.08;100.00;102011.98;1948962;73;39705;-76
2021/07/20 21:03:18;;;;;;;10.82;8.85;;;;;;;24.77;100.00;102025.94;1891262;74;86598;-74
2021/07/20 21:08:43;;;;;;;11.55;10.35;;;;;;;24.91;100.00;102024.42;1939366;73;39686;-80
2021/07/20 21:14:09;;;;;;;10.48;9.45;;;;;;;24.99;100.00;101999.91;1938836;73;39694;-82
2021/07/20 21:19:37;;;;;;;11.03;9.93;;;;;;;24.78;100.00;101990.03;1865638;75;86892;-78
2021/07/20 21:25:01;;;;;;;11.22;9.38;;;;;;;24.86;100.00;101958.44;1895584;72;39504;-91
2021/07/20 21:30:28;;;;;;;9.90;8.98;;;;;;;24.94;100.00;101978.84;1889570;75;85755;-78
2021/07/20 21:35:55;;;;;;;10.32;9.33;;;;;;;24.43;100.00;101990.24;1946270;73;39624;-84
2021/07/20 21:41:23;;;;;;;10.85;9.08;;;;;;;24.34;100.00;101998.03;1890525;75;85527;-83
2021/07/20 21:46:53;;;;;;;10.35;9.20;;;;;;;24.03;100.00;102010.67;1946532;73;39491;-84
2021/07/20 21:52:26;;;;;;;14.05;12.00;;;;;;;24.06;100.00;101996.36;1866858;75;86367;-81
2021/07/20 22:00:45;;;;;;;13.38;11.88;;;;;;;24.22;100.00;101999.39;1968884;71;39580;-76
2021/07/20 22:03:18;;;;;;;13.05;11.75;;;;;;;24.13;100.00;102004.32;1887819;74;938796;-81
2021/07/20 22:05:48;;;;;;;12.58;11.30;;;;;;;24.19;100.00;102000.93;1899631;73;941063;-81
2021/07/20 22:08:20;;;;;;;11.83;10.63;;;;;;;24.20;100.00;102004.60;1902432;73;940955;-79
2021/07/20 22:10:50;;;;;;;13.28;10.50;;;;;;;24.11;100.00;102001.82;1825593;76;940843;-79
2021/07/20 22:13:21;;;;;;;11.22;10.15;;;;;;;24.08;100.00;102005.36;1807615;77;940084;-83
2021/07/20 22:15:51;;;;;;;11.43;10.00;;;;;;;24.24;100.00;102006.39;1813902;75;948460;-82
2021/07/20 22:21:15;;;;;;;13.50;11.78;;;;;;;24.18;100.00;102007.78;1879614;75;86855;-78
2021/07/20 22:26:43;;;;;;;12.43;11.22;;;;;;;24.10;100.00;102021.45;1882218;75;86522;-84
2021/07/20 22:32:15;;;;;;;12.55;10.93;;;;;;;23.67;100.00;102033.75;1942833;73;39418;-76
2021/07/20 22:37:42;;;;;;;11.10;9.95;;;;;;;23.70;100.00;102032.50;1881629;75;86154;-82
2021/07/20 22:43:11;;;;;;;11.63;10.53;;;;;;;23.04;100.00;102053.47;1908835;72;40099;-82
2021/07/20 22:48:58;;;;;;;11.35;10.25;;;;;;;22.67;100.00;102053.68;1898825;74;86512;-81
2021/07/20 22:54:50;;;;;;;11.53;10.32;;;;;;;22.79;100.00;102053.00;1798462;77;86876;-81
2021/07/20 23:00:39;;;;;;;11.53;10.15;;;;;;;22.58;100.00;102051.45;1903068;74;86368;-76
2021/07/20 23:06:31;;;;;;;11.18;9.75;;;;;;;22.56;100.00;102046.70;1880961;75;86691;-77
2021/07/20 23:11:58;;;;;;;11.83;10.60;;;;;;;22.62;100.00;102070.02;1944953;73;39668;-75
2021/07/20 23:17:28;;;;;;;13.72;9.85;;;;;;;22.38;100.00;102064.89;1877579;75;86219;-81
2021/07/20 23:22:54;;;;;;;12.82;10.58;;;;;;;22.43;100.00;102068.97;1873454;74;39799;-82
2021/07/20 23:28:21;;;;;;;11.03;9.98;;;;;;;22.64;100.00;102066.25;1892534;74;85744;-81
2021/07/20 23:33:47;;;;;;;11.15;10.05;;;;;;;22.40;100.00;102071.06;1947449;72;39490;-81
2021/07/20 23:39:15;;;;;;;10.98;9.73;;;;;;;22.49;100.00;102073.30;1876915;76;86264;-81
2021/07/20 23:44:41;;;;;;;11.05;10.00;;;;;;;22.44;100.00;102074.05;1889968;75;86443;-81
2021/07/20 23:50:17;;;;;;;11.88;10.68;;;;;;;22.43;100.00;102078.88;1943050;72;39467;-76
2021/07/20 23:55:45;;;;;;;10.75;9.65;;;;;;;22.30;100.00;102087.55;1938094;73;39549;-75
